sensor_id;sensor_type;location;lat;lon;timestamp;pressure;altitude;pressure_sealevel;temperature;humidity
32033;BME280;31720;52.638;9.216;2023-02-04T00:02:55;102527.19;;;5.58;100.00
32033;BME280;31720;52.638;9.216;2023-02-04T00:05:56;102544.63;;;5.54;100.00
32033;BME280;31720;52.638;9.216;2023-02-04T00:08:58;102543.78;;;5.40;100.00
32033;BME280;31720;52.638;9.216;2023-02-04T00:11:59;102550.72;;;5.47;100.00
32033;BME280;31720;52.638;9.216;2023-02-04T00:15:02;102547.25;;;5.44;100.00
32033;BME280;31720;52.638;9.216;2023-02-04T00:18:04;102549.00;;;5.42;100.00
32033;BME280;31720;52.638;9.216;2023-02-04T00:21:06;102549.00;;;5.40;100.00
32033;BME280;31720;52.638;9.216;2023-02-04T00:24:07;102555.97;;;5.35;100.00
32033;BME280;31720;52.638;9.216;2023-02-04T00:27:09;102553.38;;;5.26;100.00
32033;BME280;31720;52.638;9.216;2023-02-04T00:30:12;102566.41;;;5.24;100.00
32033;BME280;31720;52.638;9.216;2023-02-04T00:33:14;102572.50;;;5.17;100.00
32033;BME280;31720;52.638;9.216;2023-02-04T00:36:15;102587.28;;;5.21;100.00
32033;BME280;31720;52.638;9.216;2023-02-04T00:39:16;102588.16;;;5.19;100.00
32033;BME280;31720;52.638;9.216;2023-02-04T00:42:18;102595.97;;;5.16;100.00
32033;BME280;31720;52.638;9.216;2023-02-04T00:45:20;102606.41;;;4.94;100.00
32033;BME280;31720;52.638;9.216;2023-02-04T00:48:22;102602.06;;;4.99;100.00
32033;BME280;31720;52.638;9.216;2023-02-04T00:51:23;102599.44;;;4.95;100.00
32033;BME280;31720;52.638;9.216;2023-02-04T00:54:24;102607.25;;;4.81;100.00
32033;BME280;31720;52.638;9.216;2023-02-04T00:57:26;102620.28;;;4.79;100.00
32033;BME280;31720;52.638;9.216;2023-02-04T01:00:29;102629.84;;;4.74;100.00
32033;BME280;31720;52.638;9.216;2023-02-04T01:03:30;102636.78;;;4.69;100.00
32033;BME280;31720;52.638;9.216;2023-02-04T01:06:32;102622.88;;;4.67;100.00
32033;BME280;31720;52.638;9.216;2023-02-04T01:09:33;102640.22;;;4.56;100.00
32033;BME280;31720;52.638;9.216;2023-02-04T01:12:35;102638.47;;;4.58;100.00
32033;BME280;31720;52.638;9.216;2023-02-04T01:15:38;102644.53;;;4.49;100.00
32033;BME280;31720;52.638;9.216;2023-02-04T01:18:40;102655.81;;;4.47;100.00
32033;BME280;31720;52.638;9.216;2023-02-04T01:21:41;102661.91;;;4.52;100.00
32033;BME280;31720;52.638;9.216;2023-02-04T01:24:43;102666.25;;;4.47;100.00
32033;BME280;31720;52.638;9.216;2023-02-04T01:27:44;102682.72;;;4.49;100.00
32033;BME280;31720;52.638;9.216;2023-02-04T01:30:47;102692.28;;;4.47;100.00
32033;BME280;31720;52.638;9.216;2023-02-04T01:33:48;102697.50;;;4.51;100.00
32033;BME280;31720;52.638;9.216;2023-02-04T01:36:49;102700.06;;;4.48;100.00
32033;BME280;31720;52.638;9.216;2023-02-04T01:39:51;102704.41;;;4.45;100.00
32033;BME280;31720;52.638;9.216;2023-02-04T01:42:52;102713.00;;;4.27;100.00
32033;BME280;31720;52.638;9.216;2023-02-04T01:45:56;102713.88;;;4.30;100.00
32033;BME280;31720;52.638;9.216;2023-02-04T01:48:57;102716.50;;;4.27;100.00
32033;BME280;31720;52.638;9.216;2023-02-04T01:51:59;102720.78;;;4.22;100.00
32033;BME280;31720;52.638;9.216;2023-02-04T01:55:00;102716.47;;;4.24;100.00
32033;BME280;31720;52.638;9.216;2023-02-04T01:58:02;102729.50;;;4.24;100.00
32033;BME280;31720;52.638;9.216;2023-02-04T02:01:10;102739.03;;;4.27;100.00
32033;BME280;31720;52.638;9.216;2023-02-04T02:04:15;102752.06;;;4.28;100.00
32033;BME280;31720;52.638;9.216;2023-02-04T02:07:16;102763.34;;;4.29;100.00
32033;BME280;31720;52.638;9.216;2023-02-04T02:10:18;102767.72;;;4.31;100.00
32033;BME280;31720;52.638;9.216;2023-02-04T02:13:20;102773.75;;;4.30;100.00
32033;BME280;31720;52.638;9.216;2023-02-04T02:16:23;102779.81;;;4.29;100.00
32033;BME280;31720;52.638;9.216;2023-02-04T02:19:27;102781.53;;;4.26;100.00
32033;BME280;31720;52.638;9.216;2023-02-04T02:22:32;102790.22;;;4.26;100.00
32033;BME280;31720;52.638;9.216;2023-02-04T02:25:37;102801.50;;;4.28;100.00
32033;BME280;31720;52.638;9.216;2023-02-04T02:28:38;102794.56;;;4.29;100.00
32033;BME280;31720;52.638;9.216;2023-02-04T02:31:40;102806.63;;;4.15;100.00
32033;BME280;31720;52.638;9.216;2023-02-04T02:34:42;102812.75;;;4.23;100.00
32033;BME280;31720;52.638;9.216;2023-02-04T02:37:44;102817.94;;;4.20;100.00
32033;BME280;31720;52.638;9.216;2023-02-04T02:40:47;102830.88;;;4.11;100.00
32033;BME280;31720;52.638;9.216;2023-02-04T02:43:50;102841.22;;;4.03;100.00
32033;BME280;31720;52.638;9.216;2023-02-04T02:46:52;102849.03;;;4.03;100.00
32033;BME280;31720;52.638;9.216;2023-02-04T02:49:53;102855.03;;;3.94;100.00
32033;BME280;31720;52.638;9.216;2023-02-04T02:52:55;102867.97;;;3.85;100.00
32033;BME280;31720;52.638;9.216;2023-02-04T02:55:57;102860.19;;;3.87;100.00
32033;BME280;31720;52.638;9.216;2023-02-04T02:59:11;102859.38;;;3.94;100.00
32033;BME280;31720;52.638;9.216;2023-02-04T03:02:15;102871.56;;;4.01;100.00
32033;BME280;31720;52.638;9.216;2023-02-04T03:05:17;102876.78;;;4.01;100.00
32033;BME280;31720;52.638;9.216;2023-02-04T03:08:19;102901.06;;;4.03;100.00
32033;BME280;31720;52.638;9.216;2023-02-04T03:11:22;102896.72;;;4.03;100.00
32033;BME280;31720;52.638;9.216;2023-02-04T03:14:26;102900.19;;;4.02;100.00
32033;BME280;31720;52.638;9.216;2023-02-04T03:17:28;102906.25;;;4.00;100.00
32033;BME280;31720;52.638;9.216;2023-02-04T03:20:30;102908.81;;;3.97;100.00
32033;BME280;31720;52.638;9.216;2023-02-04T03:23:32;102907.91;;;3.95;100.00
32033;BME280;31720;52.638;9.216;2023-02-04T03:26:35;102914.94;;;4.00;100.00
32033;BME280;31720;52.638;9.216;2023-02-04T03:29:41;102921.03;;;4.05;100.00
32033;BME280;31720;52.638;9.216;2023-02-04T03:32:43;102919.97;;;3.85;100.00
32033;BME280;31720;52.638;9.216;2023-02-04T03:35:44;102930.38;;;3.82;100.00
32033;BME280;31720;52.638;9.216;2023-02-04T03:38:46;102936.34;;;3.75;100.00
32033;BME280;31720;52.638;9.216;2023-02-04T03:41:48;102940.69;;;3.73;100.00
32033;BME280;31720;52.638;9.216;2023-02-04T03:44:50;102953.59;;;3.64;100.00
32033;BME280;31720;52.638;9.216;2023-02-04T03:47:51;102941.38;;;3.58;100.00
32033;BME280;31720;52.638;9.216;2023-02-04T03:50:52;102946.47;;;3.47;100.00
32033;BME280;31720;52.638;9.216;2023-02-04T03:53:54;102946.41;;;3.44;100.00
32033;BME280;31720;52.638;9.216;2023-02-04T03:56:56;102947.25;;;3.42;100.00
32033;BME280;31720;52.638;9.216;2023-02-04T03:59:58;102951.53;;;3.37;100.00
32033;BME280;31720;52.638;9.216;2023-02-04T04:02:59;102958.47;;;3.39;100.00
32033;BME280;31720;52.638;9.216;2023-02-04T04:06:00;102961.81;;;3.27;100.00
32033;BME280;31720;52.638;9.216;2023-02-04T04:09:04;102973.03;;;3.26;100.00
32033;BME280;31720;52.638;9.216;2023-02-04T04:12:07;102983.44;;;3.25;100.00
32033;BME280;31720;52.638;9.216;2023-02-04T04:15:08;102986.91;;;3.27;100.00
32033;BME280;31720;52.638;9.216;2023-02-04T04:18:09;102987.75;;;3.23;100.00
32033;BME280;31720;52.638;9.216;2023-02-04T04:21:11;102998.91;;;3.16;100.00
32033;BME280;31720;52.638;9.216;2023-02-04T04:24:12;103005.75;;;3.12;100.00
32033;BME280;31720;52.638;9.216;2023-02-04T04:27:15;103013.47;;;3.04;100.00
32033;BME280;31720;52.638;9.216;2023-02-04T04:30:17;103021.22;;;3.03;100.00
32033;BME280;31720;52.638;9.216;2023-02-04T04:33:18;103031.59;;;3.03;100.00
32033;BME280;31720;52.638;9.216;2023-02-04T04:36:19;103035.88;;;2.99;100.00
32033;BME280;31720;52.638;9.216;2023-02-04T04:39:21;103033.19;;;2.92;100.00
32033;BME280;31720;52.638;9.216;2023-02-04T04:42:23;103029.59;;;2.82;100.00
32033;BME280;31720;52.638;9.216;2023-02-04T04:45:24;103033.00;;;2.81;100.00
32033;BME280;31720;52.638;9.216;2023-02-04T04:48:26;103047.69;;;2.77;100.00
32033;BME280;31720;52.638;9.216;2023-02-04T04:51:27;103052.81;;;2.74;100.00
32033;BME280;31720;52.638;9.216;2023-02-04T04:54:30;103061.47;;;2.73;100.00
32033;BME280;31720;52.638;9.216;2023-02-04T04:57:33;103063.13;;;2.70;100.00
32033;BME280;31720;52.638;9.216;2023-02-04T05:00:34;103067.31;;;2.62;100.00
32033;BME280;31720;52.638;9.216;2023-02-04T05:03:36;103070.75;;;2.61;100.00
32033;BME280;31720;52.638;9.216;2023-02-04T05:06:37;103074.16;;;2.57;100.00
32033;BME280;31720;52.638;9.216;2023-02-04T05:09:38;103094.91;;;2.55;100.00
32033;BME280;31720;52.638;9.216;2023-02-04T05:12:41;103093.03;;;2.49;100.00
32033;BME280;31720;52.638;9.216;2023-02-04T05:15:42;103091.13;;;2.38;100.00
32033;BME280;31720;52.638;9.216;2023-02-04T05:18:44;103087.59;;;2.36;100.00
32033;BME280;31720;52.638;9.216;2023-02-04T05:21:45;103101.44;;;2.35;100.00
32033;BME280;31720;52.638;9.216;2023-02-04T05:24:46;103097.88;;;2.29;100.00
32033;BME280;31720;52.638;9.216;2023-02-04T05:27:49;103109.97;;;2.27;100.00
32033;BME280;31720;52.638;9.216;2023-02-04T05:30:50;103115.78;;;2.16;100.00
32033;BME280;31720;52.638;9.216;2023-02-04T05:33:52;103119.25;;;2.16;100.00
32033;BME280;31720;52.638;9.216;2023-02-04T05:36:53;103121.75;;;2.13;100.00
32033;BME280;31720;52.638;9.216;2023-02-04T05:39:55;103126.13;;;2.14;100.00
32033;BME280;31720;52.638;9.216;2023-02-04T05:42:57;103128.81;;;2.19;100.00
32033;BME280;31720;52.638;9.216;2023-02-04T05:45:58;103118.34;;;2.14;100.00
32033;BME280;31720;52.638;9.216;2023-02-04T05:49:00;103133.91;;;2.14;100.00
32033;BME280;31720;52.638;9.216;2023-02-04T05:52:01;103130.41;;;2.12;100.00
32033;BME280;31720;52.638;9.216;2023-02-04T05:55:03;103135.63;;;2.14;100.00
32033;BME280;31720;52.638;9.216;2023-02-04T05:58:06;103142.50;;;2.13;100.00
32033;BME280;31720;52.638;9.216;2023-02-04T06:01:08;103143.38;;;2.12;100.00
32033;BME280;31720;52.638;9.216;2023-02-04T06:04:09;103147.69;;;2.13;100.00
32033;BME280;31720;52.638;9.216;2023-02-04T06:07:11;103161.53;;;2.12;100.00
32033;BME280;31720;52.638;9.216;2023-02-04T06:10:12;103162.34;;;2.10;100.00
32033;BME280;31720;52.638;9.216;2023-02-04T06:13:15;103171.59;;;1.97;100.00
32033;BME280;31720;52.638;9.216;2023-02-04T06:16:17;103172.44;;;1.96;100.00
32033;BME280;31720;52.638;9.216;2023-02-04T06:19:19;103173.13;;;1.89;100.00
32033;BME280;31720;52.638;9.216;2023-02-04T06:22:20;103174.00;;;1.89;100.00
32033;BME280;31720;52.638;9.216;2023-02-04T06:25:23;103174.06;;;1.91;100.00
32033;BME280;31720;52.638;9.216;2023-02-04T06:28:26;103181.00;;;1.92;100.00
32033;BME280;31720;52.638;9.216;2023-02-04T06:31:27;103196.63;;;1.96;100.00
32033;BME280;31720;52.638;9.216;2023-02-04T06:34:28;103203.59;;;1.99;100.00
32033;BME280;31720;52.638;9.216;2023-02-04T06:37:30;103213.09;;;1.98;100.00
32033;BME280;31720;52.638;9.216;2023-02-04T06:40:31;103204.22;;;1.87;100.00
32033;BME280;31720;52.638;9.216;2023-02-04T06:43:34;103220.66;;;1.88;100.00
32033;BME280;31720;52.638;9.216;2023-02-04T06:46:35;103229.28;;;1.87;100.00
32033;BME280;31720;52.638;9.216;2023-02-04T06:49:36;103222.09;;;1.76;100.00
32033;BME280;31720;52.638;9.216;2023-02-04T06:52:38;103218.75;;;1.81;100.00
32033;BME280;31720;52.638;9.216;2023-02-04T06:55:39;103217.91;;;1.82;100.00
32033;BME280;31720;52.638;9.216;2023-02-04T06:58:42;103224.00;;;1.84;100.00
32033;BME280;31720;52.638;9.216;2023-02-04T07:01:43;103244.81;;;1.87;100.00
32033;BME280;31720;52.638;9.216;2023-02-04T07:04:44;103236.03;;;1.82;100.00
32033;BME280;31720;52.638;9.216;2023-02-04T07:07:46;103248.19;;;1.83;100.00
32033;BME280;31720;52.638;9.216;2023-02-04T07:10:47;103256.00;;;1.84;100.00
32033;BME280;31720;52.638;9.216;2023-02-04T07:13:50;103261.09;;;1.81;100.00
32033;BME280;31720;52.638;9.216;2023-02-04T07:16:51;103257.38;;;1.70;100.00
32033;BME280;31720;52.638;9.216;2023-02-04T07:19:52;103257.16;;;1.61;100.00
32033;BME280;31720;52.638;9.216;2023-02-04T07:22:54;103275.22;;;1.58;100.00
32033;BME280;31720;52.638;9.216;2023-02-04T07:25:55;103278.69;;;1.58;100.00
32033;BME280;31720;52.638;9.216;2023-02-04T07:28:59;103282.25;;;1.62;100.00
32033;BME280;31720;52.638;9.216;2023-02-04T07:32:01;103278.53;;;1.50;100.00
32033;BME280;31720;52.638;9.216;2023-02-04T07:35:02;103290.72;;;1.55;100.00
32033;BME280;31720;52.638;9.216;2023-02-04T07:38:04;103298.28;;;1.47;100.00
32033;BME280;31720;52.638;9.216;2023-02-04T07:41:05;103294.00;;;1.49;100.00
32033;BME280;31720;52.638;9.216;2023-02-04T07:44:08;103304.38;;;1.49;100.00
32033;BME280;31720;52.638;9.216;2023-02-04T07:47:10;103310.41;;;1.48;100.00
32033;BME280;31720;52.638;9.216;2023-02-04T07:50:11;103318.06;;;1.43;100.00
32033;BME280;31720;52.638;9.216;2023-02-04T07:53:13;103310.88;;;1.33;100.00
32033;BME280;31720;52.638;9.216;2023-02-04T07:56:15;103317.84;;;1.36;100.00
32033;BME280;31720;52.638;9.216;2023-02-04T07:59:17;103311.91;;;1.40;100.00
32033;BME280;31720;52.638;9.216;2023-02-04T08:02:19;103315.34;;;1.39;100.00
32033;BME280;31720;52.638;9.216;2023-02-04T08:05:20;103313.41;;;1.32;100.00
32033;BME280;31720;52.638;9.216;2023-02-04T08:08:21;103318.78;;;1.38;100.00
32033;BME280;31720;52.638;9.216;2023-02-04T08:11:23;103323.25;;;1.45;100.00
32033;BME280;31720;52.638;9.216;2023-02-04T08:14:27;103330.38;;;1.52;100.00
32033;BME280;31720;52.638;9.216;2023-02-04T08:17:28;103328.56;;;1.49;100.00
32033;BME280;31720;52.638;9.216;2023-02-04T08:20:30;103334.81;;;1.58;100.00
32033;BME280;31720;52.638;9.216;2023-02-04T08:23:32;103340.97;;;1.61;100.00
32033;BME280;31720;52.638;9.216;2023-02-04T08:26:33;103340.25;;;1.67;100.00
32033;BME280;31720;52.638;9.216;2023-02-04T08:29:36;103340.13;;;1.62;100.00
32033;BME280;31720;52.638;9.216;2023-02-04T08:32:37;103341.88;;;1.63;100.00
32033;BME280;31720;52.638;9.216;2023-02-04T08:35:39;103340.19;;;1.64;100.00
32033;BME280;31720;52.638;9.216;2023-02-04T08:38:40;103339.72;;;1.80;100.00
32033;BME280;31720;52.638;9.216;2023-02-04T08:41:43;103355.41;;;1.86;100.00
32033;BME280;31720;52.638;9.216;2023-02-04T08:44:46;103363.38;;;1.94;100.00
32033;BME280;31720;52.638;9.216;2023-02-04T08:47:47;103357.34;;;1.95;100.00
32033;BME280;31720;52.638;9.216;2023-02-04T08:50:48;103370.53;;;2.02;100.00
32033;BME280;31720;52.638;9.216;2023-02-04T08:53:50;103379.22;;;2.05;100.00
32033;BME280;31720;52.638;9.216;2023-02-04T08:56:51;103375.81;;;2.07;100.00
32033;BME280;31720;52.638;9.216;2023-02-04T08:59:54;103388.91;;;2.13;100.00
32033;BME280;31720;52.638;9.216;2023-02-04T09:02:55;103380.47;;;2.20;100.00
32033;BME280;31720;52.638;9.216;2023-02-04T09:05:56;103389.31;;;2.28;100.00
32033;BME280;31720;52.638;9.216;2023-02-04T09:08:58;103390.31;;;2.35;100.00
32033;BME280;31720;52.638;9.216;2023-02-04T09:11:59;103397.41;;;2.42;100.00
32033;BME280;31720;52.638;9.216;2023-02-04T09:15:02;103407.91;;;2.48;100.00
32033;BME280;31720;52.638;9.216;2023-02-04T09:18:04;103408.91;;;2.53;100.00
32033;BME280;31720;52.638;9.216;2023-02-04T09:21:13;103410.78;;;2.59;100.00
32033;BME280;31720;52.638;9.216;2023-02-04T09:24:15;103412.53;;;2.60;100.00
32033;BME280;31720;52.638;9.216;2023-02-04T09:27:16;103400.53;;;2.67;100.00
32033;BME280;31720;52.638;9.216;2023-02-04T09:30:20;103417.16;;;2.73;100.00
32033;BME280;31720;52.638;9.216;2023-02-04T09:33:21;103415.59;;;2.82;100.00
32033;BME280;31720;52.638;9.216;2023-02-04T09:36:22;103419.09;;;2.82;100.00
32033;BME280;31720;52.638;9.216;2023-02-04T09:39:27;103434.09;;;2.97;100.00
32033;BME280;31720;52.638;9.216;2023-02-04T09:42:29;103439.38;;;3.00;100.00
32033;BME280;31720;52.638;9.216;2023-02-04T09:45:34;103442.97;;;3.07;100.00
32033;BME280;31720;52.638;9.216;2023-02-04T09:48:36;103443.00;;;3.08;100.00
32033;BME280;31720;52.638;9.216;2023-02-04T09:51:37;103437.97;;;3.16;100.00
32033;BME280;31720;52.638;9.216;2023-02-04T09:54:39;103441.44;;;3.16;100.00
32033;BME280;31720;52.638;9.216;2023-02-04T09:57:40;103457.97;;;3.20;100.00
32033;BME280;31720;52.638;9.216;2023-02-04T10:00:44;103463.28;;;3.26;100.00
32033;BME280;31720;52.638;9.216;2023-02-04T10:03:47;103462.41;;;3.25;100.00
32033;BME280;31720;52.638;9.216;2023-02-04T10:06:50;103448.75;;;3.34;100.00
32033;BME280;31720;52.638;9.216;2023-02-04T10:09:55;103454.81;;;3.35;100.00
32033;BME280;31720;52.638;9.216;2023-02-04T10:12:58;103456.66;;;3.40;100.00
32033;BME280;31720;52.638;9.216;2023-02-04T10:16:03;103446.22;;;3.37;100.00
32033;BME280;31720;52.638;9.216;2023-02-04T10:19:11;103446.41;;;3.48;100.00
32033;BME280;31720;52.638;9.216;2023-02-04T10:22:17;103463.66;;;3.43;100.00
32033;BME280;31720;52.638;9.216;2023-02-04T10:25:21;103460.28;;;3.48;100.00
32033;BME280;31720;52.638;9.216;2023-02-04T10:28:32;103462.16;;;3.55;100.00
32033;BME280;31720;52.638;9.216;2023-02-04T10:31:35;103463.19;;;3.64;100.00
32033;BME280;31720;52.638;9.216;2023-02-04T10:34:38;103469.41;;;3.72;100.00
32033;BME280;31720;52.638;9.216;2023-02-04T10:37:39;103473.97;;;3.85;100.00
32033;BME280;31720;52.638;9.216;2023-02-04T10:40:41;103471.53;;;3.91;100.00
32033;BME280;31720;52.638;9.216;2023-02-04T10:43:42;103469.00;;;3.96;100.00
32033;BME280;31720;52.638;9.216;2023-02-04T10:46:45;103466.34;;;3.94;100.00
32033;BME280;31720;52.638;9.216;2023-02-04T10:49:52;103468.06;;;3.94;100.00
32033;BME280;31720;52.638;9.216;2023-02-04T10:52:55;103459.41;;;3.93;100.00
32033;BME280;31720;52.638;9.216;2023-02-04T10:56:19;103472.50;;;3.99;100.00
32033;BME280;31720;52.638;9.216;2023-02-04T10:59:22;103474.22;;;3.97;100.00
32033;BME280;31720;52.638;9.216;2023-02-04T11:02:35;103476.00;;;4.00;100.00
32033;BME280;31720;52.638;9.216;2023-02-04T11:05:37;103467.44;;;4.05;100.00
32033;BME280;31720;52.638;9.216;2023-02-04T11:08:39;103469.97;;;4.02;100.00
32033;BME280;31720;52.638;9.216;2023-02-04T11:11:44;103470.84;;;4.03;100.00
32033;BME280;31720;52.638;9.216;2023-02-04T11:14:54;103477.06;;;4.10;100.00
32033;BME280;31720;52.638;9.216;2023-02-04T11:18:02;103476.34;;;4.20;100.00
32033;BME280;31720;52.638;9.216;2023-02-04T11:21:13;103478.28;;;4.31;100.00
32033;BME280;31720;52.638;9.216;2023-02-04T11:24:24;103476.00;;;4.50;100.00
32033;BME280;31720;52.638;9.216;2023-02-04T11:27:37;103487.34;;;4.55;100.00
32033;BME280;31720;52.638;9.216;2023-02-04T11:30:38;103474.47;;;4.66;100.00
32033;BME280;31720;52.638;9.216;2023-02-04T11:33:41;103478.84;;;4.67;100.00
32033;BME280;31720;52.638;9.216;2023-02-04T11:36:54;103476.16;;;4.61;100.00
32033;BME280;31720;52.638;9.216;2023-02-04T11:39:57;103478.69;;;4.56;100.00
32033;BME280;31720;52.638;9.216;2023-02-04T11:43:02;103473.28;;;4.44;100.00
32033;BME280;31720;52.638;9.216;2023-02-04T11:46:10;103479.19;;;4.35;100.00
32033;BME280;31720;52.638;9.216;2023-02-04T11:49:17;103481.69;;;4.27;100.00
32033;BME280;31720;52.638;9.216;2023-02-04T11:52:20;103484.22;;;4.23;100.00
32033;BME280;31720;52.638;9.216;2023-02-04T11:55:21;103481.53;;;4.18;100.00
32033;BME280;31720;52.638;9.216;2023-02-04T11:58:23;103492.09;;;4.27;100.00
32033;BME280;31720;52.638;9.216;2023-02-04T12:01:30;103485.09;;;4.25;100.00
32033;BME280;31720;52.638;9.216;2023-02-04T12:04:33;103484.25;;;4.24;100.00
32033;BME280;31720;52.638;9.216;2023-02-04T12:07:34;103484.41;;;4.35;100.00
32033;BME280;31720;52.638;9.216;2023-02-04T12:10:36;103488.72;;;4.31;100.00
32033;BME280;31720;52.638;9.216;2023-02-04T12:13:46;103492.56;;;4.56;100.00
32033;BME280;31720;52.638;9.216;2023-02-04T12:16:49;103481.91;;;4.97;100.00
32033;BME280;31720;52.638;9.216;2023-02-04T12:19:52;103493.50;;;5.19;100.00
32033;BME280;31720;52.638;9.216;2023-02-04T12:22:54;103498.59;;;5.10;100.00
32033;BME280;31720;52.638;9.216;2023-02-04T12:25:55;103504.53;;;5.00;100.00
32033;BME280;31720;52.638;9.216;2023-02-04T12:28:57;103500.88;;;4.90;100.00
32033;BME280;31720;52.638;9.216;2023-02-04T12:32:02;103495.59;;;4.86;100.00
32033;BME280;31720;52.638;9.216;2023-02-04T12:35:05;103498.19;;;4.84;100.00
32033;BME280;31720;52.638;9.216;2023-02-04T12:38:06;103508.69;;;4.90;100.00
32033;BME280;31720;52.638;9.216;2023-02-04T12:41:08;103507.81;;;4.90;100.00
32033;BME280;31720;52.638;9.216;2023-02-04T12:44:10;103505.28;;;4.93;100.00
32033;BME280;31720;52.638;9.216;2023-02-04T12:47:11;103508.03;;;5.02;100.00
32033;BME280;31720;52.638;9.216;2023-02-04T12:50:16;103502.81;;;5.03;100.00
32033;BME280;31720;52.638;9.216;2023-02-04T12:53:21;103508.06;;;5.05;100.00
32033;BME280;31720;52.638;9.216;2023-02-04T12:56:22;103503.78;;;5.10;100.00
32033;BME280;31720;52.638;9.216;2023-02-04T12:59:24;103500.19;;;5.02;100.00
32033;BME280;31720;52.638;9.216;2023-02-04T13:02:25;103506.13;;;4.92;100.00
32033;BME280;31720;52.638;9.216;2023-02-04T13:05:28;103511.44;;;4.98;100.00
32033;BME280;31720;52.638;9.216;2023-02-04T13:08:29;103506.13;;;4.92;100.00
32033;BME280;31720;52.638;9.216;2023-02-04T13:11:31;103506.09;;;4.90;100.00
32033;BME280;31720;52.638;9.216;2023-02-04T13:14:32;103510.56;;;4.97;100.00
32033;BME280;31720;52.638;9.216;2023-02-04T13:17:33;103510.44;;;4.88;100.00
32033;BME280;31720;52.638;9.216;2023-02-04T13:20:36;103504.41;;;4.94;100.00
32033;BME280;31720;52.638;9.216;2023-02-04T13:23:38;103507.88;;;4.91;100.00
32033;BME280;31720;52.638;9.216;2023-02-04T13:26:39;103507.03;;;4.94;100.00
32033;BME280;31720;52.638;9.216;2023-02-04T13:29:40;103499.22;;;4.94;100.00
32033;BME280;31720;52.638;9.216;2023-02-04T13:32:42;103506.00;;;4.82;100.00
32033;BME280;31720;52.638;9.216;2023-02-04T13:35:45;103510.22;;;4.74;100.00
32033;BME280;31720;52.638;9.216;2023-02-04T13:38:46;103506.69;;;4.72;100.00
32033;BME280;31720;52.638;9.216;2023-02-04T13:41:47;103512.81;;;4.74;100.00
32033;BME280;31720;52.638;9.216;2023-02-04T13:44:48;103512.75;;;4.71;100.00
32033;BME280;31720;52.638;9.216;2023-02-04T13:47:50;103518.09;;;4.77;100.00
32033;BME280;31720;52.638;9.216;2023-02-04T13:50:52;103508.34;;;4.67;100.00
32033;BME280;31720;52.638;9.216;2023-02-04T13:53:54;103507.56;;;4.71;100.00
32033;BME280;31720;52.638;9.216;2023-02-04T13:56:55;103510.34;;;4.83;100.00
32033;BME280;31720;52.638;9.216;2023-02-04T13:59:56;103506.16;;;4.93;100.00
32033;BME280;31720;52.638;9.216;2023-02-04T14:02:58;103508.94;;;5.05;100.00
32033;BME280;31720;52.638;9.216;2023-02-04T14:06:00;103514.91;;;4.97;100.00
32033;BME280;31720;52.638;9.216;2023-02-04T14:09:02;103524.50;;;5.01;100.00
32033;BME280;31720;52.638;9.216;2023-02-04T14:12:04;103517.56;;;5.00;100.00
32033;BME280;31720;52.638;9.216;2023-02-04T14:15:06;103521.84;;;4.96;100.00
32033;BME280;31720;52.638;9.216;2023-02-04T14:18:08;103520.91;;;4.93;100.00
32033;BME280;31720;52.638;9.216;2023-02-04T14:21:11;103532.28;;;4.98;100.00
32033;BME280;31720;52.638;9.216;2023-02-04T14:24:13;103535.06;;;5.10;100.00
32033;BME280;31720;52.638;9.216;2023-02-04T14:27:16;103525.44;;;5.06;100.00
32033;BME280;31720;52.638;9.216;2023-02-04T14:30:19;103523.78;;;5.09;100.00
32033;BME280;31720;52.638;9.216;2023-02-04T14:33:21;103518.56;;;5.11;100.00
32033;BME280;31720;52.638;9.216;2023-02-04T14:36:23;103530.59;;;5.03;100.00
32033;BME280;31720;52.638;9.216;2023-02-04T14:39:25;103527.13;;;5.02;100.00
32033;BME280;31720;52.638;9.216;2023-02-04T14:42:26;103528.88;;;5.03;100.00
32033;BME280;31720;52.638;9.216;2023-02-04T14:45:27;103532.41;;;5.05;100.00
32033;BME280;31720;52.638;9.216;2023-02-04T14:48:29;103533.19;;;5.00;100.00
32033;BME280;31720;52.638;9.216;2023-02-04T14:51:32;103534.09;;;5.03;100.00
32033;BME280;31720;52.638;9.216;2023-02-04T14:54:33;103525.38;;;5.01;100.00
32033;BME280;31720;52.638;9.216;2023-02-04T14:57:34;103529.72;;;5.01;100.00
32033;BME280;31720;52.638;9.216;2023-02-04T15:00:36;103529.53;;;4.89;100.00
32033;BME280;31720;52.638;9.216;2023-02-04T15:03:37;103525.19;;;4.89;100.00
32033;BME280;31720;52.638;9.216;2023-02-04T15:06:40;103526.06;;;4.90;100.00
32033;BME280;31720;52.638;9.216;2023-02-04T15:09:41;103528.72;;;4.91;100.00
32033;BME280;31720;52.638;9.216;2023-02-04T15:12:43;103532.81;;;4.75;100.00
32033;BME280;31720;52.638;9.216;2023-02-04T15:15:45;103521.38;;;4.66;100.00
32033;BME280;31720;52.638;9.216;2023-02-04T15:18:46;103526.63;;;4.69;100.00
32033;BME280;31720;52.638;9.216;2023-02-04T15:21:48;103527.53;;;4.72;100.00
32033;BME280;31720;52.638;9.216;2023-02-04T15:24:50;103534.31;;;4.63;100.00
32033;BME280;31720;52.638;9.216;2023-02-04T15:27:52;103531.78;;;4.66;100.00
32033;BME280;31720;52.638;9.216;2023-02-04T15:30:53;103534.38;;;4.66;100.00
32033;BME280;31720;52.638;9.216;2023-02-04T15:33:54;103534.31;;;4.63;100.00
32033;BME280;31720;52.638;9.216;2023-02-04T15:36:57;103534.38;;;4.64;100.00
32033;BME280;31720;52.638;9.216;2023-02-04T15:39:58;103533.44;;;4.61;100.00
32033;BME280;31720;52.638;9.216;2023-02-04T15:43:00;103536.91;;;4.60;100.00
32033;BME280;31720;52.638;9.216;2023-02-04T15:46:02;103529.03;;;4.55;100.00
32033;BME280;31720;52.638;9.216;2023-02-04T15:49:03;103538.59;;;4.57;100.00
32033;BME280;31720;52.638;9.216;2023-02-04T15:52:08;103533.28;;;4.51;100.00
32033;BME280;31720;52.638;9.216;2023-02-04T15:55:09;103529.81;;;4.51;100.00